Portada
METAR-TAF:

METAR-TAF

Aeroports :

Colmar, França

latitud: 48-06-37N, longitud: 7-21-33E, altitud: 191 m

Observació

L'informe es va fer fa 30 minuts, a les 23:30 UTC
Vent 3 kt amb direcció variable
Temperatura 4°C
Humitat 70%
Pressió 1015 hPa
Visibilitat 10 km o més
Escasses núvols a una alçada de 2600 ft
Cel ennuvolat a una alçada de 3400 ft
Cel cobert a una alçada de 4200 ft

METAR: LFGA 272330Z AUTO VRB03KT 9999 FEW026 BKN034 OVC042 04/M01 Q1015

Hora: 01:00 (00:00 UTC)


TAF: manca

Observacions i pronòstics meteorològics de més de 4000 aeroports (METAR i TAF).

Les estacions disponibles són els punts grocs i vermells al mapa.

Posi el ratolí al punt desitjat per veure el nom de l'estació.

Feu clic per veure les observacions i els pronòstics meteorològics.

Per canviar el mapa: feu clic els botons verds amb una creu de color negre per apropar; al botó verd amb un guió per allunyar la imatge; o en les fletxes verdes per a mapes adjacents.


METAR-TAF: